createdAt,value
2016-06-30T00:00:11.936Z,-85
2016-06-30T00:01:11.907Z,-86
2016-06-30T00:02:11.954Z,-86
2016-06-30T00:03:12.323Z,-86
2016-06-30T00:04:11.938Z,-86
2016-06-30T00:05:11.897Z,-86
2016-06-30T00:06:12.309Z,-87
2016-06-30T00:07:11.958Z,-87
2016-06-30T00:08:12.291Z,-87
2016-06-30T00:09:12.062Z,-89
2016-06-30T00:10:12.013Z,-87
2016-06-30T00:11:11.984Z,-87
2016-06-30T00:12:12.013Z,-87
2016-06-30T00:13:12.016Z,-87
2016-06-30T00:14:11.917Z,-87
2016-06-30T00:15:12.086Z,-87
2016-06-30T00:16:12.135Z,-87
2016-06-30T00:17:12.054Z,-87
2016-06-30T00:18:12.011Z,-86
2016-06-30T00:19:12.138Z,-87
2016-06-30T00:20:12.031Z,-85
2016-06-30T00:21:11.962Z,-85
2016-06-30T00:22:11.944Z,-85
2016-06-30T00:23:12.026Z,-87
2016-06-30T00:24:12.232Z,-86
2016-06-30T00:25:11.986Z,-86
2016-06-30T00:26:12.065Z,-86
2016-06-30T00:27:12.045Z,-87
2016-06-30T00:28:12.007Z,-87
2016-06-30T00:29:11.940Z,-87
2016-06-30T00:30:12.013Z,-87
2016-06-30T00:31:11.924Z,-87
2016-06-30T00:32:12.138Z,-87
2016-06-30T00:33:11.955Z,-86
2016-06-30T00:34:11.977Z,-87
2016-06-30T00:35:12.042Z,-86
2016-06-30T00:36:12.021Z,-87
2016-06-30T00:37:12.047Z,-87
2016-06-30T00:38:11.981Z,-85
2016-06-30T00:39:12.092Z,-86
2016-06-30T00:40:12.013Z,-85
2016-06-30T00:41:12.056Z,-85
2016-06-30T00:42:12.067Z,-85
2016-06-30T00:43:12.042Z,-86
2016-06-30T00:44:12.048Z,-88
2016-06-30T00:45:12.073Z,-87
2016-06-30T00:46:12.518Z,-86
2016-06-30T00:47:12.357Z,-86
2016-06-30T00:48:12.056Z,-85
2016-06-30T00:49:11.993Z,-86
2016-06-30T00:50:12.166Z,-86
2016-06-30T00:51:12.039Z,-85
2016-06-30T00:52:12.146Z,-86
2016-06-30T00:53:12.122Z,-85
2016-06-30T00:54:12.129Z,-85
2016-06-30T00:55:12.234Z,-86
2016-06-30T00:56:12.300Z,-86
2016-06-30T00:57:12.059Z,-86
2016-06-30T00:58:12.137Z,-86
2016-06-30T00:59:12.308Z,-86
2016-06-30T01:00:12.069Z,-85
2016-06-30T01:01:12.227Z,-85
2016-06-30T01:02:12.197Z,-87
2016-06-30T01:03:12.407Z,-86
2016-06-30T01:04:12.093Z,-86
2016-06-30T01:05:12.083Z,-85
2016-06-30T01:06:12.101Z,-86
2016-06-30T01:07:12.203Z,-85
2016-06-30T01:08:12.077Z,-86
2016-06-30T01:09:12.301Z,-86
2016-06-30T01:10:12.183Z,-85
2016-06-30T01:11:12.145Z,-85
2016-06-30T01:12:12.055Z,-86
2016-06-30T01:13:12.146Z,-86
2016-06-30T01:14:12.138Z,-86
2016-06-30T01:15:12.133Z,-86
2016-06-30T01:16:12.165Z,-86
2016-06-30T01:17:12.164Z,-86
2016-06-30T01:18:12.163Z,-85
2016-06-30T01:19:12.343Z,-87
2016-06-30T01:20:12.308Z,-86
2016-06-30T01:21:12.129Z,-86
2016-06-30T01:22:12.784Z,-87
2016-06-30T01:23:12.207Z,-87
2016-06-30T01:24:12.138Z,-85
2016-06-30T01:25:12.273Z,-86
2016-06-30T01:26:12.178Z,-87
2016-06-30T01:27:12.090Z,-87
2016-06-30T01:28:12.194Z,-87
2016-06-30T01:29:12.163Z,-87
2016-06-30T01:30:12.341Z,-88
2016-06-30T01:31:12.161Z,-85
2016-06-30T01:32:12.330Z,-87
2016-06-30T01:33:12.175Z,-86
2016-06-30T01:34:12.248Z,-86
2016-06-30T01:35:12.138Z,-86
2016-06-30T01:36:12.213Z,-86
2016-06-30T01:37:12.513Z,-86
2016-06-30T01:38:12.782Z,-87
2016-06-30T01:39:12.130Z,-86
2016-06-30T01:40:12.232Z,-86
2016-06-30T01:41:12.191Z,-86
2016-06-30T01:42:12.211Z,-87
2016-06-30T01:43:12.170Z,-86
2016-06-30T01:44:12.239Z,-86
2016-06-30T01:45:12.174Z,-86
2016-06-30T01:46:12.234Z,-87
2016-06-30T01:47:12.184Z,-86
2016-06-30T01:48:12.254Z,-87
2016-06-30T01:49:12.357Z,-86
2016-06-30T01:50:12.253Z,-86
2016-06-30T01:51:12.319Z,-86
2016-06-30T01:52:12.356Z,-87
2016-06-30T01:53:12.243Z,-86
2016-06-30T01:54:12.473Z,-85
2016-06-30T01:55:12.371Z,-86
2016-06-30T01:56:12.847Z,-85
2016-06-30T01:57:12.124Z,-85
2016-06-30T01:58:12.318Z,-86
2016-06-30T01:59:12.882Z,-87
2016-06-30T02:00:13.051Z,-84
2016-06-30T02:01:12.217Z,-87
2016-06-30T02:02:12.276Z,-86
2016-06-30T02:03:12.350Z,-86
2016-06-30T02:04:12.549Z,-87
2016-06-30T02:05:12.394Z,-86
2016-06-30T02:06:12.222Z,-86
2016-06-30T02:07:12.853Z,-85
2016-06-30T02:08:12.477Z,-87
2016-06-30T02:09:12.269Z,-86
2016-06-30T02:10:12.195Z,-87
2016-06-30T02:11:12.217Z,-86
2016-06-30T02:12:12.298Z,-85
2016-06-30T02:13:12.294Z,-87
2016-06-30T02:14:13.231Z,-87
2016-06-30T02:15:12.296Z,-85
2016-06-30T02:16:12.350Z,-86
2016-06-30T02:17:12.332Z,-87
2016-06-30T02:18:12.326Z,-87
2016-06-30T02:19:12.273Z,-86
2016-06-30T02:20:12.219Z,-87
2016-06-30T02:21:12.153Z,-87
2016-06-30T02:22:12.205Z,-87
2016-06-30T02:23:12.244Z,-86
2016-06-30T02:24:12.560Z,-85
2016-06-30T02:25:12.271Z,-85
2016-06-30T02:26:12.393Z,-87
2016-06-30T02:27:12.449Z,-85
2016-06-30T02:28:12.321Z,-86
2016-06-30T02:29:12.418Z,-87
2016-06-30T02:30:12.664Z,-85
2016-06-30T02:31:12.561Z,-87
2016-06-30T02:32:12.370Z,-87
2016-06-30T02:33:12.978Z,-87
2016-06-30T02:34:12.320Z,-86
2016-06-30T02:35:12.891Z,-87
2016-06-30T02:36:12.420Z,-86
2016-06-30T02:37:12.792Z,-89
2016-06-30T02:38:13.089Z,-86
2016-06-30T02:39:12.644Z,-87
2016-06-30T02:40:12.409Z,-87
2016-06-30T02:41:12.423Z,-86
2016-06-30T02:42:12.970Z,-88
2016-06-30T02:43:12.882Z,-86
2016-06-30T02:44:12.581Z,-87
2016-06-30T02:45:12.850Z,-89
2016-06-30T02:46:12.370Z,-87
2016-06-30T02:47:12.756Z,-89
2016-06-30T02:48:12.603Z,-89
2016-06-30T02:49:13.098Z,-89
2016-06-30T02:50:12.812Z,-85
2016-06-30T02:51:12.597Z,-88
2016-06-30T02:52:13.555Z,-89
2016-06-30T02:53:12.500Z,-87
2016-06-30T02:54:12.443Z,-85
2016-06-30T02:55:12.495Z,-85
2016-06-30T02:56:13.101Z,-87
2016-06-30T02:57:12.381Z,-86
2016-06-30T02:58:12.580Z,-86
2016-06-30T02:59:12.386Z,-85
2016-06-30T03:00:12.935Z,-86
2016-06-30T03:01:12.582Z,-86
2016-06-30T03:02:12.716Z,-85
2016-06-30T03:03:12.793Z,-86
2016-06-30T03:04:12.691Z,-88
2016-06-30T03:05:12.577Z,-86
2016-06-30T03:06:13.023Z,-87
2016-06-30T03:07:12.778Z,-87
2016-06-30T03:08:12.612Z,-88
2016-06-30T03:09:12.611Z,-86
2016-06-30T03:10:12.872Z,-89
2016-06-30T03:11:12.866Z,-87
2016-06-30T03:12:12.511Z,-86
2016-06-30T03:13:12.639Z,-86
2016-06-30T03:14:13.378Z,-88
2016-06-30T03:15:12.512Z,-86
2016-06-30T03:16:12.751Z,-86
2016-06-30T03:17:13.355Z,-88
2016-06-30T03:18:12.827Z,-85
2016-06-30T03:19:13.057Z,-88
2016-06-30T03:20:12.749Z,-87
2016-06-30T03:21:12.937Z,-88
2016-06-30T03:22:12.987Z,-86
2016-06-30T03:23:13.316Z,-88
2016-06-30T03:24:13.283Z,-86
2016-06-30T03:25:13.146Z,-87
2016-06-30T03:26:12.910Z,-86
2016-06-30T03:27:13.213Z,-89
2016-06-30T03:28:13.331Z,-87
2016-06-30T03:29:12.830Z,-86
2016-06-30T03:30:12.891Z,-89
2016-06-30T03:31:12.578Z,-86
2016-06-30T03:32:12.839Z,-87
2016-06-30T03:33:13.188Z,-86
2016-06-30T03:34:13.167Z,-87
2016-06-30T03:47:14.726Z,-90
2016-06-30T03:47:23.090Z,-87
2016-06-30T03:48:21.879Z,-86
2016-06-30T03:49:22.900Z,-85
2016-06-30T03:50:22.675Z,-86
2016-06-30T03:51:22.248Z,-88
2016-06-30T03:52:22.141Z,-85
2016-06-30T03:53:22.664Z,-88
2016-06-30T03:54:22.399Z,-89
2016-06-30T03:55:22.345Z,-86
2016-06-30T03:56:23.767Z,-87
2016-06-30T03:57:22.627Z,-88
2016-06-30T03:58:22.710Z,-87
2016-06-30T03:59:21.940Z,-87
2016-06-30T04:00:22.750Z,-87
2016-06-30T04:01:21.854Z,-86
2016-06-30T04:02:22.065Z,-86
2016-06-30T04:03:23.739Z,-88
2016-06-30T04:04:22.137Z,-86
2016-06-30T04:05:22.709Z,-88
2016-06-30T04:06:22.198Z,-86
2016-06-30T04:07:21.914Z,-86
2016-06-30T04:08:22.188Z,-88
2016-06-30T04:09:22.064Z,-85
2016-06-30T04:10:23.777Z,-88
2016-06-30T04:11:22.626Z,-86
2016-06-30T04:12:21.978Z,-86
2016-06-30T04:13:21.850Z,-85
2016-06-30T04:14:22.300Z,-86
2016-06-30T04:15:22.571Z,-87
2016-06-30T04:16:22.237Z,-86
2016-06-30T04:17:22.357Z,-86
2016-06-30T04:18:22.014Z,-86
2016-06-30T04:19:22.209Z,-86
2016-06-30T04:20:22.497Z,-86
2016-06-30T04:21:21.945Z,-86
2016-06-30T04:22:22.133Z,-86
2016-06-30T04:23:22.257Z,-86
2016-06-30T04:24:22.225Z,-88
2016-06-30T04:25:22.424Z,-86
2016-06-30T04:26:22.639Z,-87
2016-06-30T04:27:22.562Z,-87
2016-06-30T04:28:22.544Z,-88
2016-06-30T04:29:22.249Z,-87
2016-06-30T04:30:22.057Z,-86
2016-06-30T04:31:22.386Z,-87
2016-06-30T04:32:23.735Z,-87
2016-06-30T04:33:22.348Z,-86
2016-06-30T04:34:22.676Z,-86
2016-06-30T04:35:23.887Z,-87
2016-06-30T04:36:22.419Z,-87
2016-06-30T04:37:22.634Z,-88
2016-06-30T04:38:22.506Z,-86
2016-06-30T04:39:22.366Z,-88
2016-06-30T04:40:22.597Z,-88
2016-06-30T04:41:22.407Z,-88
2016-06-30T04:42:22.793Z,-88
2016-06-30T04:43:22.481Z,-87
2016-06-30T04:44:22.966Z,-87
2016-06-30T04:45:23.150Z,-90
2016-06-30T04:46:23.394Z,-89
2016-06-30T04:47:22.457Z,-90
2016-06-30T04:48:21.892Z,-86
2016-06-30T04:49:22.606Z,-86
2016-06-30T04:50:22.396Z,-86
2016-06-30T04:51:22.687Z,-85
2016-06-30T04:52:22.875Z,-84
2016-06-30T04:53:22.166Z,-84
2016-06-30T04:54:22.578Z,-84
2016-06-30T04:55:22.155Z,-84
2016-06-30T04:56:22.100Z,-82
2016-06-30T04:57:22.114Z,-85
2016-06-30T04:58:21.955Z,-85
2016-06-30T04:59:22.042Z,-84
2016-06-30T05:00:22.113Z,-84
2016-06-30T05:01:22.195Z,-86
2016-06-30T05:02:21.959Z,-85
2016-06-30T05:03:22.123Z,-85
2016-06-30T05:04:21.958Z,-84
2016-06-30T05:05:23.694Z,-87
2016-06-30T05:06:22.386Z,-86
2016-06-30T05:07:21.972Z,-84
2016-06-30T05:08:22.061Z,-84
2016-06-30T05:09:22.020Z,-84
2016-06-30T05:10:22.499Z,-86
2016-06-30T05:11:22.192Z,-84
2016-06-30T05:12:22.507Z,-85
2016-06-30T05:13:22.184Z,-85
2016-06-30T05:14:22.279Z,-85
2016-06-30T05:15:22.257Z,-85
2016-06-30T05:16:22.375Z,-84
2016-06-30T05:17:22.492Z,-86
2016-06-30T05:18:22.789Z,-87
2016-06-30T05:19:22.144Z,-84
2016-06-30T05:20:22.121Z,-85
2016-06-30T05:21:21.981Z,-85
2016-06-30T05:22:22.187Z,-86
2016-06-30T05:23:22.363Z,-86
2016-06-30T05:24:22.232Z,-86
2016-06-30T05:25:22.297Z,-86
2016-06-30T05:26:22.356Z,-84
2016-06-30T05:27:21.974Z,-84
2016-06-30T05:28:22.183Z,-85
2016-06-30T05:29:22.967Z,-87
2016-06-30T05:30:22.175Z,-86
2016-06-30T05:31:22.341Z,-86
2016-06-30T05:32:22.342Z,-86
2016-06-30T05:33:22.223Z,-87
2016-06-30T05:34:22.233Z,-84
2016-06-30T05:35:22.310Z,-86
2016-06-30T05:36:22.143Z,-85
2016-06-30T05:37:22.406Z,-86
2016-06-30T05:38:22.131Z,-86
2016-06-30T05:39:22.493Z,-86
2016-06-30T05:40:22.091Z,-85
2016-06-30T05:41:23.124Z,-85
2016-06-30T05:42:22.183Z,-85
2016-06-30T05:43:22.233Z,-85
2016-06-30T05:44:22.139Z,-85
2016-06-30T05:45:22.139Z,-86
2016-06-30T05:46:22.130Z,-85
2016-06-30T05:47:22.134Z,-85
2016-06-30T05:48:22.201Z,-85
2016-06-30T05:49:22.255Z,-85
2016-06-30T05:50:22.220Z,-85
2016-06-30T05:51:22.332Z,-86
2016-06-30T05:52:22.726Z,-87
2016-06-30T05:53:22.167Z,-86
2016-06-30T05:54:22.052Z,-86
2016-06-30T05:55:22.190Z,-86
2016-06-30T05:56:22.155Z,-87
2016-06-30T05:57:22.171Z,-86
2016-06-30T05:58:22.129Z,-87
2016-06-30T05:59:22.125Z,-87
2016-06-30T06:00:22.051Z,-87
2016-06-30T06:01:22.083Z,-87
2016-06-30T06:02:22.089Z,-86
2016-06-30T06:03:22.082Z,-87
2016-06-30T06:04:22.308Z,-87
2016-06-30T06:05:23.018Z,-87
2016-06-30T06:06:22.462Z,-87
2016-06-30T06:07:23.261Z,-86
2016-06-30T06:08:22.683Z,-87
2016-06-30T06:09:22.217Z,-85
2016-06-30T06:10:22.341Z,-87
2016-06-30T06:11:22.572Z,-87
2016-06-30T06:12:22.493Z,-87
2016-06-30T06:13:22.330Z,-87
2016-06-30T06:14:22.363Z,-87
2016-06-30T06:15:22.657Z,-84
2016-06-30T06:16:23.120Z,-84
2016-06-30T06:17:22.306Z,-84
2016-06-30T06:18:22.326Z,-84
2016-06-30T06:19:22.367Z,-84
2016-06-30T06:20:22.162Z,-84
2016-06-30T06:21:22.138Z,-84
2016-06-30T06:22:22.084Z,-85
2016-06-30T06:23:22.131Z,-86
2016-06-30T06:24:22.243Z,-85
2016-06-30T06:25:22.281Z,-85
2016-06-30T06:26:22.142Z,-85
2016-06-30T06:27:22.225Z,-85
2016-06-30T06:28:22.118Z,-85
2016-06-30T06:29:22.246Z,-85
2016-06-30T06:30:22.134Z,-85
2016-06-30T06:31:22.282Z,-85
2016-06-30T06:32:22.245Z,-85
2016-06-30T06:33:22.185Z,-85
2016-06-30T06:34:22.312Z,-85
2016-06-30T06:35:22.302Z,-85
2016-06-30T06:36:22.231Z,-85
2016-06-30T06:37:22.244Z,-85
2016-06-30T06:38:22.343Z,-85
2016-06-30T06:39:22.291Z,-85
2016-06-30T06:40:22.204Z,-85
2016-06-30T06:41:22.431Z,-85
2016-06-30T06:42:22.227Z,-85
2016-06-30T06:43:22.327Z,-85
2016-06-30T06:44:23.008Z,-85
2016-06-30T06:45:22.197Z,-85
2016-06-30T06:46:22.179Z,-85
2016-06-30T06:47:22.280Z,-85
2016-06-30T06:48:22.250Z,-85
2016-06-30T06:49:22.301Z,-86
2016-06-30T06:50:23.207Z,-86
2016-06-30T06:51:22.853Z,-85
2016-06-30T06:52:22.237Z,-88
2016-06-30T06:53:22.355Z,-93
2016-06-30T06:54:22.226Z,-93
2016-06-30T06:55:22.456Z,-92
2016-06-30T06:56:22.488Z,-90
2016-06-30T06:57:22.307Z,-94
2016-06-30T06:58:23.446Z,-93
2016-06-30T06:59:22.346Z,-91
2016-06-30T07:00:22.325Z,-92
2016-06-30T07:01:22.214Z,-92
2016-06-30T07:02:22.444Z,-90
2016-06-30T07:03:22.634Z,-94
2016-06-30T07:04:22.643Z,-89
2016-06-30T07:05:22.474Z,-93
2016-06-30T07:06:22.341Z,-90
2016-06-30T07:07:22.705Z,-91
2016-06-30T07:08:23.098Z,-93
2016-06-30T07:09:22.304Z,-88
2016-06-30T07:10:22.305Z,-86
2016-06-30T07:11:22.307Z,-85
2016-06-30T07:12:22.309Z,-86
2016-06-30T07:13:22.384Z,-86
2016-06-30T07:14:23.241Z,-86
2016-06-30T07:15:22.357Z,-85
2016-06-30T07:16:22.314Z,-87
2016-06-30T07:17:22.262Z,-87
2016-06-30T07:18:22.312Z,-82
2016-06-30T07:19:22.134Z,-83
2016-06-30T07:20:24.425Z,-83
2016-06-30T07:21:22.154Z,-82
2016-06-30T07:34:23.588Z,-83
2016-06-30T07:34:30.541Z,-83
2016-06-30T07:35:30.589Z,-82
2016-06-30T07:36:30.544Z,-82
2016-06-30T07:37:38.609Z,-82
2016-06-30T07:38:33.191Z,-83
2016-06-30T07:39:30.582Z,-83
2016-06-30T07:40:30.622Z,-83
2016-06-30T07:41:30.627Z,-83
2016-06-30T07:42:30.755Z,-83
2016-06-30T07:43:30.690Z,-83
2016-06-30T07:44:30.576Z,-83
2016-06-30T07:45:30.706Z,-83
2016-06-30T07:46:32.599Z,-83
2016-06-30T07:47:30.955Z,-83
2016-06-30T07:48:30.547Z,-80
2016-06-30T07:49:30.579Z,-81
2016-06-30T07:50:30.685Z,-81
2016-06-30T07:51:30.637Z,-82
2016-06-30T07:52:30.591Z,-82
2016-06-30T07:53:30.562Z,-82
2016-06-30T07:54:31.491Z,-82
2016-06-30T07:55:30.620Z,-82
2016-06-30T07:56:30.671Z,-81
2016-06-30T07:57:30.705Z,-81
2016-06-30T07:58:30.663Z,-85
2016-06-30T07:59:30.584Z,-85
2016-06-30T08:00:30.747Z,-87
2016-06-30T08:01:30.539Z,-87
2016-06-30T08:02:30.606Z,-87
2016-06-30T08:03:30.579Z,-86
2016-06-30T08:04:30.599Z,-86
2016-06-30T08:05:30.710Z,-85
2016-06-30T08:06:30.562Z,-87
2016-06-30T08:07:30.623Z,-87
2016-06-30T08:08:30.702Z,-85
2016-06-30T08:09:30.777Z,-85
2016-06-30T08:10:30.586Z,-87
2016-06-30T08:11:30.674Z,-86
2016-06-30T08:12:30.635Z,-85
2016-06-30T08:13:30.678Z,-85
2016-06-30T08:14:30.632Z,-84
2016-06-30T08:15:30.642Z,-85
2016-06-30T08:16:30.636Z,-83
2016-06-30T08:17:30.644Z,-86
2016-06-30T08:18:30.603Z,-83
2016-06-30T08:19:30.674Z,-83
2016-06-30T08:20:30.739Z,-84
2016-06-30T08:21:31.381Z,-84
2016-06-30T08:22:30.684Z,-84
2016-06-30T08:23:30.710Z,-84
2016-06-30T08:24:30.656Z,-84
2016-06-30T08:25:30.680Z,-84
2016-06-30T08:26:30.654Z,-84
2016-06-30T08:27:31.383Z,-83
2016-06-30T08:35:00.703Z,-85
2016-06-30T08:35:07.739Z,-85
2016-06-30T08:36:07.677Z,-84
2016-06-30T08:37:07.659Z,-84
2016-06-30T08:38:07.737Z,-84
2016-06-30T08:39:07.640Z,-84
2016-06-30T08:40:07.639Z,-84
2016-06-30T08:41:07.767Z,-84
2016-06-30T08:42:07.689Z,-84
2016-06-30T08:43:07.637Z,-84
2016-06-30T08:44:07.702Z,-85
2016-06-30T08:45:07.675Z,-84
2016-06-30T08:46:07.630Z,-84
2016-06-30T08:47:07.616Z,-84
2016-06-30T08:48:07.723Z,-84
2016-06-30T08:49:07.659Z,-84
2016-06-30T08:50:07.650Z,-85
2016-06-30T08:51:07.726Z,-84
2016-06-30T08:52:07.694Z,-84
2016-06-30T08:53:07.653Z,-84
2016-06-30T08:54:07.846Z,-84
2016-06-30T08:55:07.677Z,-83
2016-06-30T08:56:07.707Z,-84
2016-06-30T08:57:07.713Z,-84
2016-06-30T08:58:07.711Z,-84
2016-06-30T08:59:07.697Z,-84
2016-06-30T09:00:07.739Z,-84
2016-06-30T09:01:07.973Z,-85
2016-06-30T09:02:08.008Z,-85
2016-06-30T09:03:08.047Z,-85
2016-06-30T09:04:07.974Z,-85
2016-06-30T09:05:07.906Z,-86
2016-06-30T09:06:07.933Z,-84
2016-06-30T09:07:07.884Z,-85
2016-06-30T09:08:08.114Z,-83
2016-06-30T09:09:07.918Z,-83
2016-06-30T09:10:08.036Z,-85
2016-06-30T09:11:07.955Z,-84
2016-06-30T09:16:26.358Z,-84
2016-06-30T09:16:33.342Z,-84
2016-06-30T09:17:33.366Z,-84
2016-06-30T09:18:33.282Z,-84
2016-06-30T09:19:33.282Z,-83
2016-06-30T09:20:33.331Z,-84
2016-06-30T09:21:33.385Z,-85
2016-06-30T09:22:34.288Z,-85
2016-06-30T09:23:33.448Z,-86
2016-06-30T09:24:33.560Z,-86
2016-06-30T09:25:33.577Z,-86
2016-06-30T09:26:33.424Z,-85
2016-06-30T09:27:33.589Z,-85
2016-06-30T09:28:33.502Z,-85
2016-06-30T09:29:33.679Z,-86
2016-06-30T09:30:33.507Z,-85
2016-06-30T09:31:33.361Z,-84
2016-06-30T09:32:33.390Z,-84
2016-06-30T09:33:33.903Z,-84
2016-06-30T09:34:33.360Z,-86
2016-06-30T09:35:33.480Z,-86
2016-06-30T09:36:33.896Z,-84
2016-06-30T09:37:33.351Z,-84
2016-06-30T09:38:33.406Z,-83
2016-06-30T09:39:33.379Z,-84
2016-06-30T09:40:33.461Z,-83
2016-06-30T09:41:33.474Z,-83
2016-06-30T09:42:33.344Z,-83
2016-06-30T09:43:33.436Z,-83
2016-06-30T09:44:33.394Z,-84
2016-06-30T09:45:33.386Z,-86
2016-06-30T09:46:33.390Z,-83
2016-06-30T09:47:33.389Z,-83
2016-06-30T09:48:33.374Z,-82
2016-06-30T09:49:33.570Z,-82
2016-06-30T09:50:33.428Z,-85
2016-06-30T09:51:33.394Z,-85
2016-06-30T09:52:33.406Z,-84
2016-06-30T09:53:33.349Z,-83
2016-06-30T09:54:33.486Z,-83
2016-06-30T09:55:33.448Z,-83
2016-06-30T09:56:33.412Z,-83
2016-06-30T09:57:33.362Z,-85
2016-06-30T09:58:33.765Z,-85
2016-06-30T09:59:33.418Z,-86
2016-06-30T10:00:33.395Z,-86
2016-06-30T10:01:33.342Z,-85
2016-06-30T10:02:33.455Z,-84
2016-06-30T10:03:33.492Z,-83
2016-06-30T10:04:34.073Z,-83
2016-06-30T10:05:34.227Z,-85
2016-06-30T10:06:33.487Z,-84
2016-06-30T10:07:33.618Z,-83
2016-06-30T10:08:33.413Z,-83
2016-06-30T10:09:33.453Z,-84
2016-06-30T10:10:33.523Z,-83
2016-06-30T10:11:34.232Z,-84
2016-06-30T10:12:33.431Z,-83
2016-06-30T10:13:33.420Z,-83
2016-06-30T10:14:33.376Z,-84
2016-06-30T10:15:33.458Z,-83
2016-06-30T10:16:33.483Z,-82
2016-06-30T10:17:33.451Z,-83
2016-06-30T10:18:33.568Z,-82
2016-06-30T10:19:33.582Z,-83
2016-06-30T10:20:33.411Z,-83
2016-06-30T10:21:33.558Z,-83
2016-06-30T10:22:33.527Z,-83
2016-06-30T10:23:33.391Z,-83
2016-06-30T10:24:33.519Z,-83
2016-06-30T10:25:33.589Z,-83
2016-06-30T10:26:33.574Z,-83
2016-06-30T10:27:33.622Z,-82
2016-06-30T10:28:33.466Z,-82
2016-06-30T10:29:33.512Z,-86
2016-06-30T10:30:33.567Z,-82
2016-06-30T10:31:33.545Z,-83
2016-06-30T10:32:33.550Z,-83
2016-06-30T10:33:33.466Z,-84
2016-06-30T10:34:33.552Z,-83
2016-06-30T10:35:33.739Z,-82
2016-06-30T10:36:33.537Z,-83
2016-06-30T10:37:33.501Z,-83
2016-06-30T10:38:33.552Z,-83
2016-06-30T10:39:33.458Z,-82
2016-06-30T10:40:33.474Z,-83
2016-06-30T10:41:33.610Z,-82
2016-06-30T10:42:33.533Z,-83
2016-06-30T10:43:33.610Z,-82
2016-06-30T10:44:33.687Z,-83
2016-06-30T10:45:33.589Z,-83
2016-06-30T10:46:33.557Z,-83
2016-06-30T10:47:33.548Z,-83
2016-06-30T10:48:33.598Z,-83
2016-06-30T10:49:33.590Z,-83
2016-06-30T10:50:33.575Z,-82
2016-06-30T10:51:33.538Z,-84
2016-06-30T10:52:33.542Z,-84
2016-06-30T10:53:33.565Z,-83
2016-06-30T10:54:33.516Z,-84
2016-06-30T10:55:33.535Z,-84
2016-06-30T10:56:33.526Z,-83
2016-06-30T10:57:33.575Z,-83
2016-06-30T10:58:33.704Z,-83
2016-06-30T10:59:33.578Z,-83
2016-06-30T11:00:33.551Z,-83
2016-06-30T11:01:33.537Z,-83
2016-06-30T11:02:33.735Z,-84
2016-06-30T11:03:33.670Z,-83
2016-06-30T11:04:33.750Z,-83
2016-06-30T11:05:33.651Z,-83
2016-06-30T11:06:33.731Z,-83
2016-06-30T11:07:33.629Z,-81
2016-06-30T11:08:33.667Z,-83
2016-06-30T11:09:33.595Z,-82
2016-06-30T11:10:34.157Z,-82
2016-06-30T11:11:34.005Z,-83
2016-06-30T11:12:33.617Z,-82
2016-06-30T11:13:33.571Z,-82
2016-06-30T11:14:33.643Z,-83
2016-06-30T11:15:33.641Z,-82
2016-06-30T11:16:33.572Z,-82
2016-06-30T11:17:33.641Z,-82
2016-06-30T11:18:33.614Z,-83
2016-06-30T11:19:33.561Z,-83
2016-06-30T11:20:33.615Z,-82
2016-06-30T11:21:33.579Z,-82
2016-06-30T11:22:33.641Z,-82
2016-06-30T11:23:33.560Z,-81
2016-06-30T11:24:33.710Z,-81
2016-06-30T11:25:33.715Z,-81
2016-06-30T11:26:34.369Z,-81
2016-06-30T11:27:33.856Z,-81
2016-06-30T11:28:33.645Z,-82
2016-06-30T11:29:33.614Z,-81
2016-06-30T11:30:33.730Z,-82
2016-06-30T11:31:33.760Z,-82
2016-06-30T11:32:33.696Z,-82
2016-06-30T11:33:33.679Z,-82
2016-06-30T11:34:33.638Z,-82
2016-06-30T11:35:33.753Z,-82
2016-06-30T11:36:33.658Z,-82
2016-06-30T11:37:33.617Z,-82
2016-06-30T11:38:33.728Z,-82
2016-06-30T11:39:33.742Z,-83
2016-06-30T11:40:33.682Z,-82
2016-06-30T11:41:33.663Z,-82
2016-06-30T11:42:33.681Z,-82
2016-06-30T11:43:33.832Z,-82
2016-06-30T11:44:33.686Z,-82
2016-06-30T11:45:33.676Z,-82
2016-06-30T11:46:34.522Z,-83
2016-06-30T11:47:33.797Z,-82
2016-06-30T11:48:33.730Z,-82
2016-06-30T11:49:33.669Z,-82
2016-06-30T11:50:33.616Z,-87
2016-06-30T11:51:33.648Z,-83
2016-06-30T11:52:33.675Z,-82
2016-06-30T11:53:33.694Z,-82
2016-06-30T11:54:33.722Z,-82
2016-06-30T11:55:33.735Z,-84
2016-06-30T11:56:33.703Z,-84
2016-06-30T11:57:33.730Z,-85
2016-06-30T11:58:33.687Z,-85
2016-06-30T11:59:33.673Z,-84
2016-06-30T12:00:33.844Z,-85
2016-06-30T12:01:33.651Z,-85
2016-06-30T12:02:33.717Z,-85
2016-06-30T12:03:34.407Z,-85
2016-06-30T12:04:33.755Z,-84
2016-06-30T12:05:34.366Z,-84
2016-06-30T12:06:34.421Z,-85
2016-06-30T12:07:34.746Z,-84
2016-06-30T12:08:34.396Z,-84
2016-06-30T12:09:33.864Z,-84
2016-06-30T12:10:33.775Z,-84
2016-06-30T12:11:33.764Z,-84
2016-06-30T12:12:33.789Z,-85
2016-06-30T12:13:33.711Z,-85
2016-06-30T12:14:33.713Z,-85
2016-06-30T12:27:35.517Z,-84
2016-06-30T12:27:42.545Z,-84
2016-06-30T12:28:42.466Z,-84
2016-06-30T12:29:42.485Z,-84
2016-06-30T12:30:43.292Z,-85
2016-06-30T12:31:42.801Z,-83
2016-06-30T12:32:43.815Z,-84
2016-06-30T12:33:45.267Z,-85
2016-06-30T12:34:42.527Z,-84
2016-06-30T12:35:42.606Z,-84
2016-06-30T12:36:42.527Z,-84
2016-06-30T12:37:42.520Z,-84
2016-06-30T12:38:42.561Z,-85
2016-06-30T12:39:42.551Z,-85
2016-06-30T12:40:42.475Z,-84
2016-06-30T12:41:42.475Z,-85
2016-06-30T12:42:42.590Z,-84
2016-06-30T12:43:42.843Z,-84
2016-06-30T12:44:42.522Z,-84
2016-06-30T12:45:42.544Z,-84
2016-06-30T12:46:42.627Z,-84
2016-06-30T12:47:42.617Z,-84
2016-06-30T12:48:42.538Z,-84
2016-06-30T12:49:42.461Z,-84
2016-06-30T12:50:42.570Z,-85
2016-06-30T12:51:42.658Z,-85
2016-06-30T12:52:42.599Z,-85
2016-06-30T12:53:42.573Z,-85
2016-06-30T12:54:42.582Z,-85
2016-06-30T12:55:42.547Z,-85
2016-06-30T12:56:42.553Z,-86
2016-06-30T12:57:42.628Z,-85
2016-06-30T12:58:42.540Z,-86
2016-06-30T12:59:42.494Z,-86
2016-06-30T13:00:42.476Z,-86
2016-06-30T13:01:42.530Z,-86
2016-06-30T13:02:42.512Z,-86
2016-06-30T13:03:42.547Z,-87
2016-06-30T13:04:42.532Z,-85
2016-06-30T13:05:42.558Z,-86
2016-06-30T13:06:42.575Z,-86
2016-06-30T13:07:42.573Z,-86
2016-06-30T13:08:42.617Z,-86
2016-06-30T13:09:42.540Z,-86
2016-06-30T13:10:42.607Z,-86
2016-06-30T13:11:42.575Z,-85
2016-06-30T13:12:42.555Z,-85
2016-06-30T13:13:42.626Z,-85
2016-06-30T13:14:42.705Z,-85
2016-06-30T13:15:42.613Z,-85
2016-06-30T13:16:42.627Z,-85
2016-06-30T13:17:42.607Z,-86
2016-06-30T13:18:42.646Z,-87
2016-06-30T13:19:42.666Z,-87
2016-06-30T13:20:42.705Z,-87
2016-06-30T13:21:42.645Z,-86
2016-06-30T13:22:42.646Z,-87
2016-06-30T13:23:42.716Z,-86
2016-06-30T13:24:42.622Z,-86
2016-06-30T13:25:42.694Z,-85
2016-06-30T13:26:42.549Z,-86
2016-06-30T13:27:42.706Z,-85
2016-06-30T13:28:42.689Z,-85
2016-06-30T13:29:42.684Z,-85
2016-06-30T13:30:42.595Z,-85
2016-06-30T13:31:42.654Z,-85
2016-06-30T13:32:42.631Z,-85
2016-06-30T13:33:42.743Z,-86
2016-06-30T13:34:42.604Z,-84
2016-06-30T13:35:42.702Z,-85
2016-06-30T13:36:42.652Z,-85
2016-06-30T13:37:42.734Z,-86
2016-06-30T13:38:42.769Z,-87
2016-06-30T13:39:42.754Z,-85
2016-06-30T13:40:42.620Z,-85
2016-06-30T13:41:42.737Z,-86
2016-06-30T13:42:42.692Z,-85
2016-06-30T13:43:42.729Z,-86
2016-06-30T13:44:42.675Z,-85
2016-06-30T13:45:42.627Z,-85
2016-06-30T13:46:42.662Z,-85
2016-06-30T13:47:42.710Z,-85
2016-06-30T13:48:42.657Z,-85
2016-06-30T13:49:42.651Z,-85
2016-06-30T13:50:42.693Z,-85
2016-06-30T13:51:42.667Z,-84
2016-06-30T13:52:42.781Z,-85
2016-06-30T13:53:42.688Z,-85
2016-06-30T13:54:42.740Z,-85
2016-06-30T13:55:42.718Z,-85
2016-06-30T13:56:42.763Z,-85
2016-06-30T13:57:43.652Z,-86
2016-06-30T13:58:43.981Z,-86
2016-06-30T13:59:43.558Z,-85
2016-06-30T14:00:44.363Z,-85
2016-06-30T14:01:43.028Z,-85
2016-06-30T14:02:43.110Z,-85
2016-06-30T14:03:42.996Z,-85
2016-06-30T14:04:43.180Z,-85
2016-06-30T14:05:43.018Z,-85
2016-06-30T14:06:42.812Z,-86
2016-06-30T14:07:42.885Z,-86
2016-06-30T14:08:42.858Z,-86
2016-06-30T14:09:43.215Z,-86
2016-06-30T14:10:42.789Z,-86
2016-06-30T14:11:44.492Z,-85
2016-06-30T14:12:43.058Z,-85
2016-06-30T14:13:42.935Z,-85
2016-06-30T14:14:43.087Z,-85
2016-06-30T14:15:42.975Z,-85
2016-06-30T14:16:42.729Z,-85
2016-06-30T14:17:42.727Z,-85
2016-06-30T14:18:42.759Z,-85
2016-06-30T14:19:42.776Z,-85
2016-06-30T14:20:42.771Z,-85
2016-06-30T14:21:42.843Z,-85
2016-06-30T14:22:42.778Z,-85
2016-06-30T14:23:42.805Z,-85
2016-06-30T14:24:42.756Z,-85
2016-06-30T14:25:42.771Z,-85
2016-06-30T14:26:42.847Z,-85
2016-06-30T14:27:42.670Z,-85
2016-06-30T14:28:42.706Z,-85